Meryem Nejla Ana — TCTL2 — position and weather

sailwx.info

Track history (hours):
 
Tides and Currents Weather Stations Pressure Air Temp Water Temp Dewpoint Dewpoint Depression Visibility Wind Speed Wind Dir Waves Ship Positions

Meryem Nejla Ana

Last reported at 2017-Dec-11 10:32 UTC. Time now 2017-Dec-14 15:10 UTC.
Position N 40°43' E 029°16'.

Length 94 m; draft 3.6 m.

Type: Ship. MMSI: 271002689.

Date/timePositionNaut miles runAvg speedWind from/ knotsBaromVisibWave heightAir tempDewpointWater temp
2017-Dec-11 10:32N 40°43' E 029°16'1 8.3
2017-Dec-11 10:28N 40°43' E 029°15'1 2.0
2017-Dec-11 09:54N 40°43' E 029°14'0 0.1
2017-Dec-11 09:28N 40°43' E 029°14'0 0.1
2017-Dec-11 09:00N 40°43' E 029°14'0 0.8
2017-Dec-11 08:26N 40°43' E 029°13'  
2017-Dec-07 07:57N 44°36' E 037°31'2 4.7
2017-Dec-07 07:30N 44°36' E 037°34'3 5.0
2017-Dec-07 07:00N 44°36' E 037°37'3 5.4
2017-Dec-07 06:31N 44°35' E 037°41'3 5.8
2017-Dec-07 06:01N 44°36' E 037°45'3 6.8
2017-Dec-07 05:31N 44°37' E 037°49'3 6.7
2017-Dec-07 05:01N 44°40' E 037°50'4 7.1
2017-Dec-07 04:30N 44°44' E 037°48'0 0.8
2017-Dec-07 03:58N 44°44' E 037°47'0 0.0
2017-Dec-07 03:30N 44°44' E 037°47'0 0.0
2017-Dec-07 03:00N 44°44' E 037°47'0 0.0
2017-Dec-07 02:29N 44°44' E 037°47'0 0.0
2017-Dec-07 01:58N 44°44' E 037°47'0 0.0
2017-Dec-07 01:30N 44°44' E 037°47'0 0.0
2017-Dec-07 00:58N 44°44' E 037°47'0 0.0
2017-Dec-07 00:30N 44°44' E 037°47'0 0.0
2017-Dec-06 23:58N 44°44' E 037°47'0 0.0
2017-Dec-06 23:28N 44°44' E 037°47'0 0.0
2017-Dec-06 22:58N 44°44' E 037°47'0 0.0
2017-Dec-06 22:30N 44°44' E 037°47'0 0.0
2017-Dec-06 21:58N 44°44' E 037°47'0 0.0
2017-Dec-06 21:24N 44°44' E 037°47'0 0.0
2017-Dec-06 21:00N 44°44' E 037°47'  
2017-Dec-04 10:30N 44°40' E 037°53'0 0.1
2017-Dec-04 09:55N 44°40' E 037°53'0 0.0
2017-Dec-04 09:30N 44°40' E 037°53'0 0.0
2017-Dec-04 08:58N 44°40' E 037°53'0 0.0
2017-Dec-04 08:30N 44°40' E 037°53'0 0.0
2017-Dec-04 07:59N 44°40' E 037°53'0 0.1
2017-Dec-04 07:23N 44°40' E 037°54'0 0.2
2017-Dec-04 06:58N 44°40' E 037°53'0 0.0
2017-Dec-04 06:29N 44°40' E 037°53'0 0.1
2017-Dec-04 05:58N 44°40' E 037°53'0 0.1
2017-Dec-04 05:29N 44°40' E 037°53'1 2.3
2017-Dec-04 05:00N 44°39' E 037°53'7 6.3
2017-Dec-04 03:55N 44°35' E 038°01'820.6
2017-Dec-04 03:30N 44°27' E 038°01'3410.3
2017-Dec-04 00:09N 44°01' E 038°33'210.4
2017-Dec-03 23:58N 43°60' E 038°35'510.4
2017-Dec-03 23:30N 43°56' E 038°39'610.2
2017-Dec-03 22:57N 43°52' E 038°44'610.2
2017-Dec-03 22:21N 43°47' E 038°50'310.3
2017-Dec-03 22:00N 43°44' E 038°53'1110.3
2017-Dec-03 20:56N 43°36' E 039°03'2810.4
2017-Dec-03 18:16N 43°14' E 039°26'123 3.8
2017-Dec-02 09:49N 41°12' E 039°35'  
Track history (hours):
 
Tides and Currents Weather Stations Pressure Air Temp Water Temp Dewpoint Dewpoint Depression Visibility Wind Speed Wind Dir Waves Ship Positions

Meryem Nejla Ana

Last reported at 2017-Dec-11 10:32 UTC. Time now 2017-Dec-14 15:10 UTC.
Position N 40°43' E 029°16'.

Length 94 m; draft 3.6 m.

Type: Ship. MMSI: 271002689.

Date/timePositionNaut miles runAvg speedWind from/ knotsBaromVisibWave heightAir tempDewpointWater temp
2017-Dec-11 10:32N 40°43' E 029°16'1 8.3
2017-Dec-11 10:28N 40°43' E 029°15'1 2.0
2017-Dec-11 09:54N 40°43' E 029°14'0 0.1
2017-Dec-11 09:28N 40°43' E 029°14'0 0.1
2017-Dec-11 09:00N 40°43' E 029°14'0 0.8
2017-Dec-11 08:26N 40°43' E 029°13'  
2017-Dec-07 07:57N 44°36' E 037°31'2 4.7
2017-Dec-07 07:30N 44°36' E 037°34'3 5.0
2017-Dec-07 07:00N 44°36' E 037°37'3 5.4
2017-Dec-07 06:31N 44°35' E 037°41'3 5.8
2017-Dec-07 06:01N 44°36' E 037°45'3 6.8
2017-Dec-07 05:31N 44°37' E 037°49'3 6.7
2017-Dec-07 05:01N 44°40' E 037°50'4 7.1
2017-Dec-07 04:30N 44°44' E 037°48'0 0.8
2017-Dec-07 03:58N 44°44' E 037°47'0 0.0
2017-Dec-07 03:30N 44°44' E 037°47'0 0.0
2017-Dec-07 03:00N 44°44' E 037°47'0 0.0
2017-Dec-07 02:29N 44°44' E 037°47'0 0.0
2017-Dec-07 01:58N 44°44' E 037°47'0 0.0
2017-Dec-07 01:30N 44°44' E 037°47'0 0.0
2017-Dec-07 00:58N 44°44' E 037°47'0 0.0
2017-Dec-07 00:30N 44°44' E 037°47'0 0.0
2017-Dec-06 23:58N 44°44' E 037°47'0 0.0
2017-Dec-06 23:28N 44°44' E 037°47'0 0.0
2017-Dec-06 22:58N 44°44' E 037°47'0 0.0
2017-Dec-06 22:30N 44°44' E 037°47'0 0.0
2017-Dec-06 21:58N 44°44' E 037°47'0 0.0
2017-Dec-06 21:24N 44°44' E 037°47'0 0.0
2017-Dec-06 21:00N 44°44' E 037°47'  
2017-Dec-04 10:30N 44°40' E 037°53'0 0.1
2017-Dec-04 09:55N 44°40' E 037°53'0 0.0
2017-Dec-04 09:30N 44°40' E 037°53'0 0.0
2017-Dec-04 08:58N 44°40' E 037°53'0 0.0
2017-Dec-04 08:30N 44°40' E 037°53'0 0.0
2017-Dec-04 07:59N 44°40' E 037°53'0 0.1
2017-Dec-04 07:23N 44°40' E 037°54'0 0.2
2017-Dec-04 06:58N 44°40' E 037°53'0 0.0
2017-Dec-04 06:29N 44°40' E 037°53'0 0.1
2017-Dec-04 05:58N 44°40' E 037°53'0 0.1
2017-Dec-04 05:29N 44°40' E 037°53'1 2.3
2017-Dec-04 05:00N 44°39' E 037°53'7 6.3
2017-Dec-04 03:55N 44°35' E 038°01'820.6
2017-Dec-04 03:30N 44°27' E 038°01'3410.3
2017-Dec-04 00:09N 44°01' E 038°33'210.4
2017-Dec-03 23:58N 43°60' E 038°35'510.4
2017-Dec-03 23:30N 43°56' E 038°39'610.2
2017-Dec-03 22:57N 43°52' E 038°44'610.2
2017-Dec-03 22:21N 43°47' E 038°50'310.3
2017-Dec-03 22:00N 43°44' E 038°53'1110.3
2017-Dec-03 20:56N 43°36' E 039°03'2810.4
2017-Dec-03 18:16N 43°14' E 039°26'123 3.8
2017-Dec-02 09:49N 41°12' E 039°35'  

Dump ship's entire track history